Mercer, Missouri
Current Conditions -  °F | °C
As of 7:53 PM on Monday 24 Nov 2014 (Local Time) from KLWD Reporting Station
Clear Clear  
Wind Chill: 15°   Ceiling: Unl
Heat Index: 26°   Visibility: 10mi
Dew Point: 20°   Wind: 13mph
Humidity: 78%   Direction: 290°WNW
Pressure: 29.92"   Gusts: NA
Location:  40.51°N, 93.53°W
Report Text: KLWD 250153Z AUTO 29011KT 10SM CLR M03/M07 A2992 RMK AO2 SLP146 T10331067
Loading
Personal Weather Stations






























Interactive Weather Map New forecast layout! Learn more

10-Day Weather Forecast

Advertisements
Track Severe Weather on mobile